sensor_id;sensor_type;location;lat;lon;timestamp;temperature;humidity
34095;DHT22;20372;47.080;15.410;2023-03-17T00:01:49;1.10;80.20
34095;DHT22;20372;47.080;15.410;2023-03-17T00:04:18;1.10;80.30
34095;DHT22;20372;47.080;15.410;2023-03-17T00:06:44;1.10;80.40
34095;DHT22;20372;47.080;15.410;2023-03-17T00:09:14;1.10;80.80
34095;DHT22;20372;47.080;15.410;2023-03-17T00:11:41;1.00;80.90
34095;DHT22;20372;47.080;15.410;2023-03-17T00:14:07;1.00;81.00
34095;DHT22;20372;47.080;15.410;2023-03-17T00:16:35;1.00;81.00
34095;DHT22;20372;47.080;15.410;2023-03-17T00:19:02;1.00;80.90
34095;DHT22;20372;47.080;15.410;2023-03-17T00:21:29;1.00;80.90
34095;DHT22;20372;47.080;15.410;2023-03-17T00:23:55;0.90;80.60
34095;DHT22;20372;47.080;15.410;2023-03-17T00:26:21;1.00;80.70
34095;DHT22;20372;47.080;15.410;2023-03-17T00:28:47;0.90;80.50
34095;DHT22;20372;47.080;15.410;2023-03-17T00:31:20;0.90;80.80
34095;DHT22;20372;47.080;15.410;2023-03-17T00:33:47;0.80;81.10
34095;DHT22;20372;47.080;15.410;2023-03-17T00:36:15;0.80;81.90
34095;DHT22;20372;47.080;15.410;2023-03-17T00:38:42;0.80;81.40
34095;DHT22;20372;47.080;15.410;2023-03-17T00:41:09;0.80;81.20
34095;DHT22;20372;47.080;15.410;2023-03-17T00:43:35;0.70;81.50
34095;DHT22;20372;47.080;15.410;2023-03-17T00:46:01;0.70;81.90
34095;DHT22;20372;47.080;15.410;2023-03-17T00:48:27;0.70;81.70
34095;DHT22;20372;47.080;15.410;2023-03-17T00:50:54;0.70;81.70
34095;DHT22;20372;47.080;15.410;2023-03-17T00:53:20;0.70;81.90
34095;DHT22;20372;47.080;15.410;2023-03-17T00:55:46;0.70;81.90
34095;DHT22;20372;47.080;15.410;2023-03-17T00:58:45;0.70;81.80
34095;DHT22;20372;47.080;15.410;2023-03-17T01:01:04;0.70;82.00
34095;DHT22;20372;47.080;15.410;2023-03-17T01:03:30;0.70;82.20
34095;DHT22;20372;47.080;15.410;2023-03-17T01:05:57;0.60;82.40
34095;DHT22;20372;47.080;15.410;2023-03-17T01:08:24;0.60;82.60
34095;DHT22;20372;47.080;15.410;2023-03-17T01:10:50;0.60;82.70
34095;DHT22;20372;47.080;15.410;2023-03-17T01:13:16;0.50;83.00
34095;DHT22;20372;47.080;15.410;2023-03-17T01:15:45;0.50;83.30
34095;DHT22;20372;47.080;15.410;2023-03-17T01:18:12;0.40;83.70
34095;DHT22;20372;47.080;15.410;2023-03-17T01:20:38;0.40;84.10
34095;DHT22;20372;47.080;15.410;2023-03-17T01:23:04;0.40;83.90
34095;DHT22;20372;47.080;15.410;2023-03-17T01:25:30;0.40;83.70
34095;DHT22;20372;47.080;15.410;2023-03-17T01:27:57;0.40;83.80
34095;DHT22;20372;47.080;15.410;2023-03-17T01:30:36;0.40;83.80
34095;DHT22;20372;47.080;15.410;2023-03-17T01:33:03;0.40;84.00
34095;DHT22;20372;47.080;15.410;2023-03-17T01:35:29;0.40;84.10
34095;DHT22;20372;47.080;15.410;2023-03-17T01:37:55;0.30;84.70
34095;DHT22;20372;47.080;15.410;2023-03-17T01:40:23;0.40;84.10
34095;DHT22;20372;47.080;15.410;2023-03-17T01:43:31;0.40;84.00
34095;DHT22;20372;47.080;15.410;2023-03-17T01:48:23;0.30;84.50
34095;DHT22;20372;47.080;15.410;2023-03-17T01:50:49;0.30;84.80
34095;DHT22;20372;47.080;15.410;2023-03-17T01:53:17;0.30;84.90
34095;DHT22;20372;47.080;15.410;2023-03-17T01:55:43;0.20;84.90
34095;DHT22;20372;47.080;15.410;2023-03-17T01:58:10;0.30;85.10
34095;DHT22;20372;47.080;15.410;2023-03-17T02:00:36;0.30;85.20
34095;DHT22;20372;47.080;15.410;2023-03-17T02:03:02;0.30;85.10
34095;DHT22;20372;47.080;15.410;2023-03-17T02:05:28;0.20;85.30
34095;DHT22;20372;47.080;15.410;2023-03-17T02:07:55;0.20;85.50
34095;DHT22;20372;47.080;15.410;2023-03-17T02:10:22;0.20;85.80
34095;DHT22;20372;47.080;15.410;2023-03-17T02:12:53;0.20;85.80
34095;DHT22;20372;47.080;15.410;2023-03-17T02:15:20;0.20;85.90
34095;DHT22;20372;47.080;15.410;2023-03-17T02:17:45;0.20;86.10
34095;DHT22;20372;47.080;15.410;2023-03-17T02:22:37;0.10;86.40
34095;DHT22;20372;47.080;15.410;2023-03-17T02:25:03;0.10;87.50
34095;DHT22;20372;47.080;15.410;2023-03-17T02:27:30;0.10;87.00
34095;DHT22;20372;47.080;15.410;2023-03-17T02:29:58;0.10;87.30
34095;DHT22;20372;47.080;15.410;2023-03-17T02:32:24;0.10;87.10
34095;DHT22;20372;47.080;15.410;2023-03-17T02:34:50;0.10;87.00
34095;DHT22;20372;47.080;15.410;2023-03-17T02:37:15;0.00;87.20
34095;DHT22;20372;47.080;15.410;2023-03-17T02:39:41;0.10;86.80
34095;DHT22;20372;47.080;15.410;2023-03-17T02:42:07;0.10;86.60
34095;DHT22;20372;47.080;15.410;2023-03-17T02:44:33;0.10;86.50
34095;DHT22;20372;47.080;15.410;2023-03-17T02:46:59;0.10;86.30
34095;DHT22;20372;47.080;15.410;2023-03-17T02:49:25;0.10;86.50
34095;DHT22;20372;47.080;15.410;2023-03-17T02:51:51;0.00;86.40
34095;DHT22;20372;47.080;15.410;2023-03-17T02:54:17;0.00;86.70
34095;DHT22;20372;47.080;15.410;2023-03-17T02:56:43;0.00;86.80
34095;DHT22;20372;47.080;15.410;2023-03-17T02:59:08;0.00;87.10
34095;DHT22;20372;47.080;15.410;2023-03-17T03:01:34;0.00;87.10
34095;DHT22;20372;47.080;15.410;2023-03-17T03:04:00;0.00;87.80
34095;DHT22;20372;47.080;15.410;2023-03-17T03:06:26;0.00;87.40
34095;DHT22;20372;47.080;15.410;2023-03-17T03:08:52;0.00;87.80
34095;DHT22;20372;47.080;15.410;2023-03-17T03:11:17;0.00;87.60
34095;DHT22;20372;47.080;15.410;2023-03-17T03:13:44;0.00;87.80
34095;DHT22;20372;47.080;15.410;2023-03-17T03:16:09;-0.10;87.90
34095;DHT22;20372;47.080;15.410;2023-03-17T03:18:35;-0.20;88.20
34095;DHT22;20372;47.080;15.410;2023-03-17T03:21:02;-0.20;88.50
34095;DHT22;20372;47.080;15.410;2023-03-17T03:23:28;-0.20;88.80
34095;DHT22;20372;47.080;15.410;2023-03-17T03:25:53;-0.20;88.90
34095;DHT22;20372;47.080;15.410;2023-03-17T03:28:19;-0.30;89.10
34095;DHT22;20372;47.080;15.410;2023-03-17T03:30:44;-0.30;89.30
34095;DHT22;20372;47.080;15.410;2023-03-17T03:33:11;-0.30;89.40
34095;DHT22;20372;47.080;15.410;2023-03-17T03:35:37;-0.30;89.30
34095;DHT22;20372;47.080;15.410;2023-03-17T03:38:03;-0.30;89.10
34095;DHT22;20372;47.080;15.410;2023-03-17T03:40:28;-0.30;89.00
34095;DHT22;20372;47.080;15.410;2023-03-17T03:42:54;-0.20;88.80
34095;DHT22;20372;47.080;15.410;2023-03-17T03:45:20;-0.30;89.10
34095;DHT22;20372;47.080;15.410;2023-03-17T03:47:46;-0.30;89.00
34095;DHT22;20372;47.080;15.410;2023-03-17T03:50:11;-0.30;89.40
34095;DHT22;20372;47.080;15.410;2023-03-17T03:52:37;-0.30;89.80
34095;DHT22;20372;47.080;15.410;2023-03-17T03:55:03;-0.30;90.00
34095;DHT22;20372;47.080;15.410;2023-03-17T03:57:29;-0.40;89.60
34095;DHT22;20372;47.080;15.410;2023-03-17T03:59:54;-0.40;89.90
34095;DHT22;20372;47.080;15.410;2023-03-17T04:02:20;-0.40;90.00
34095;DHT22;20372;47.080;15.410;2023-03-17T04:04:46;-0.40;89.90
34095;DHT22;20372;47.080;15.410;2023-03-17T04:07:11;-0.40;89.80
34095;DHT22;20372;47.080;15.410;2023-03-17T04:09:37;-0.40;89.80
34095;DHT22;20372;47.080;15.410;2023-03-17T04:12:03;-0.40;90.00
34095;DHT22;20372;47.080;15.410;2023-03-17T04:14:29;-0.50;90.30
34095;DHT22;20372;47.080;15.410;2023-03-17T04:16:55;-0.50;90.50
34095;DHT22;20372;47.080;15.410;2023-03-17T04:19:20;-0.60;90.90
34095;DHT22;20372;47.080;15.410;2023-03-17T04:21:46;-0.60;91.00
34095;DHT22;20372;47.080;15.410;2023-03-17T04:24:13;-0.70;91.00
34095;DHT22;20372;47.080;15.410;2023-03-17T04:26:39;-0.70;90.80
34095;DHT22;20372;47.080;15.410;2023-03-17T04:29:06;-0.70;90.80
34095;DHT22;20372;47.080;15.410;2023-03-17T04:31:35;-0.70;90.90
34095;DHT22;20372;47.080;15.410;2023-03-17T04:34:01;-0.70;91.00
34095;DHT22;20372;47.080;15.410;2023-03-17T04:36:27;-0.70;91.10
34095;DHT22;20372;47.080;15.410;2023-03-17T04:38:52;-0.70;91.30
34095;DHT22;20372;47.080;15.410;2023-03-17T04:41:18;-0.80;91.40
34095;DHT22;20372;47.080;15.410;2023-03-17T04:43:45;-0.70;91.50
34095;DHT22;20372;47.080;15.410;2023-03-17T04:46:11;-0.70;91.30
34095;DHT22;20372;47.080;15.410;2023-03-17T04:48:37;-0.70;91.40
34095;DHT22;20372;47.080;15.410;2023-03-17T04:51:02;-0.70;91.50
34095;DHT22;20372;47.080;15.410;2023-03-17T04:53:28;-0.80;91.50
34095;DHT22;20372;47.080;15.410;2023-03-17T04:55:54;-0.70;91.60
34095;DHT22;20372;47.080;15.410;2023-03-17T04:58:21;-0.70;91.60
34095;DHT22;20372;47.080;15.410;2023-03-17T05:00:46;-0.70;91.70
34095;DHT22;20372;47.080;15.410;2023-03-17T05:03:12;-0.80;91.70
34095;DHT22;20372;47.080;15.410;2023-03-17T05:05:37;-0.70;91.70
34095;DHT22;20372;47.080;15.410;2023-03-17T05:08:03;-0.70;91.80
34095;DHT22;20372;47.080;15.410;2023-03-17T05:10:28;-0.70;91.50
34095;DHT22;20372;47.080;15.410;2023-03-17T05:12:54;-0.70;91.60
34095;DHT22;20372;47.080;15.410;2023-03-17T05:15:20;-0.70;91.60
34095;DHT22;20372;47.080;15.410;2023-03-17T05:17:46;-0.70;91.60
34095;DHT22;20372;47.080;15.410;2023-03-17T05:20:11;-0.60;91.50
34095;DHT22;20372;47.080;15.410;2023-03-17T05:22:37;-0.60;91.70
34095;DHT22;20372;47.080;15.410;2023-03-17T05:25:03;-0.60;91.60
34095;DHT22;20372;47.080;15.410;2023-03-17T05:27:29;-0.50;91.60
34095;DHT22;20372;47.080;15.410;2023-03-17T05:29:55;-0.60;91.50
34095;DHT22;20372;47.080;15.410;2023-03-17T05:32:20;-0.60;91.70
34095;DHT22;20372;47.080;15.410;2023-03-17T05:34:46;-0.50;91.60
34095;DHT22;20372;47.080;15.410;2023-03-17T05:37:12;-0.50;91.40
34095;DHT22;20372;47.080;15.410;2023-03-17T05:39:38;-0.40;91.40
34095;DHT22;20372;47.080;15.410;2023-03-17T05:42:04;-0.40;91.40
34095;DHT22;20372;47.080;15.410;2023-03-17T05:44:29;-0.40;91.40
34095;DHT22;20372;47.080;15.410;2023-03-17T05:46:55;-0.30;91.20
34095;DHT22;20372;47.080;15.410;2023-03-17T05:49:24;-0.30;91.10
34095;DHT22;20372;47.080;15.410;2023-03-17T05:51:50;-0.20;91.00
34095;DHT22;20372;47.080;15.410;2023-03-17T05:54:15;-0.20;91.00
34095;DHT22;20372;47.080;15.410;2023-03-17T05:56:41;-0.20;91.10
34095;DHT22;20372;47.080;15.410;2023-03-17T05:59:07;-0.10;90.90
34095;DHT22;20372;47.080;15.410;2023-03-17T06:01:33;0.00;90.80
34095;DHT22;20372;47.080;15.410;2023-03-17T06:03:59;0.20;90.60
34095;DHT22;20372;47.080;15.410;2023-03-17T06:06:26;0.20;90.30
34095;DHT22;20372;47.080;15.410;2023-03-17T06:08:52;0.40;89.70
34095;DHT22;20372;47.080;15.410;2023-03-17T06:11:17;0.60;88.70
34095;DHT22;20372;47.080;15.410;2023-03-17T06:13:44;0.80;88.20
34095;DHT22;20372;47.080;15.410;2023-03-17T06:16:11;1.00;87.10
34095;DHT22;20372;47.080;15.410;2023-03-17T06:18:37;1.40;86.60
34095;DHT22;20372;47.080;15.410;2023-03-17T06:21:03;2.80;83.30
34095;DHT22;20372;47.080;15.410;2023-03-17T06:23:29;4.10;77.90
34095;DHT22;20372;47.080;15.410;2023-03-17T06:25:55;4.90;75.10
34095;DHT22;20372;47.080;15.410;2023-03-17T06:28:21;5.40;72.50
34095;DHT22;20372;47.080;15.410;2023-03-17T06:30:47;6.70;70.90
34095;DHT22;20372;47.080;15.410;2023-03-17T06:33:13;9.10;69.70
34095;DHT22;20372;47.080;15.410;2023-03-17T06:35:39;8.20;65.60
34095;DHT22;20372;47.080;15.410;2023-03-17T06:38:05;7.60;65.90
34095;DHT22;20372;47.080;15.410;2023-03-17T06:40:31;8.80;64.20
34095;DHT22;20372;47.080;15.410;2023-03-17T06:42:58;9.60;61.90
34095;DHT22;20372;47.080;15.410;2023-03-17T06:45:24;10.10;60.50
34095;DHT22;20372;47.080;15.410;2023-03-17T06:47:49;10.70;59.40
34095;DHT22;20372;47.080;15.410;2023-03-17T06:50:15;11.20;58.30
34095;DHT22;20372;47.080;15.410;2023-03-17T06:52:41;10.60;59.00
34095;DHT22;20372;47.080;15.410;2023-03-17T06:55:07;10.30;59.10
34095;DHT22;20372;47.080;15.410;2023-03-17T06:57:33;10.70;58.80
34095;DHT22;20372;47.080;15.410;2023-03-17T06:59:58;10.50;57.80
34095;DHT22;20372;47.080;15.410;2023-03-17T07:02:24;10.20;58.60
34095;DHT22;20372;47.080;15.410;2023-03-17T07:04:49;9.20;59.10
34095;DHT22;20372;47.080;15.410;2023-03-17T07:07:16;8.60;60.70
34095;DHT22;20372;47.080;15.410;2023-03-17T07:09:41;8.30;61.00
34095;DHT22;20372;47.080;15.410;2023-03-17T07:12:07;9.00;60.90
34095;DHT22;20372;47.080;15.410;2023-03-17T07:14:34;8.90;59.90
34095;DHT22;20372;47.080;15.410;2023-03-17T07:17:01;9.20;59.90
34095;DHT22;20372;47.080;15.410;2023-03-17T07:19:28;8.70;60.90
34095;DHT22;20372;47.080;15.410;2023-03-17T07:21:54;8.20;60.90
34095;DHT22;20372;47.080;15.410;2023-03-17T07:24:22;7.90;61.60
34095;DHT22;20372;47.080;15.410;2023-03-17T07:26:48;8.00;61.00
34095;DHT22;20372;47.080;15.410;2023-03-17T07:29:14;7.70;61.90
34095;DHT22;20372;47.080;15.410;2023-03-17T07:31:39;8.10;62.00
34095;DHT22;20372;47.080;15.410;2023-03-17T07:34:05;8.30;60.40
34095;DHT22;20372;47.080;15.410;2023-03-17T07:36:31;8.40;60.60
34095;DHT22;20372;47.080;15.410;2023-03-17T07:38:57;8.20;61.00
34095;DHT22;20372;47.080;15.410;2023-03-17T07:41:23;8.60;63.40
34095;DHT22;20372;47.080;15.410;2023-03-17T07:43:48;8.50;62.20
34095;DHT22;20372;47.080;15.410;2023-03-17T07:46:14;8.40;63.20
34095;DHT22;20372;47.080;15.410;2023-03-17T07:48:40;8.60;60.60
34095;DHT22;20372;47.080;15.410;2023-03-17T07:51:17;8.30;61.00
34095;DHT22;20372;47.080;15.410;2023-03-17T07:53:45;8.30;63.90
34095;DHT22;20372;47.080;15.410;2023-03-17T07:56:11;8.00;63.30
34095;DHT22;20372;47.080;15.410;2023-03-17T07:58:36;8.20;62.50
34095;DHT22;20372;47.080;15.410;2023-03-17T08:01:02;8.00;62.50
34095;DHT22;20372;47.080;15.410;2023-03-17T08:03:28;8.20;61.70
34095;DHT22;20372;47.080;15.410;2023-03-17T08:05:54;7.90;61.00
34095;DHT22;20372;47.080;15.410;2023-03-17T08:08:24;7.90;62.20
34095;DHT22;20372;47.080;15.410;2023-03-17T08:10:50;8.20;62.70
34095;DHT22;20372;47.080;15.410;2023-03-17T08:13:16;8.50;64.30
34095;DHT22;20372;47.080;15.410;2023-03-17T08:15:42;8.70;62.40
34095;DHT22;20372;47.080;15.410;2023-03-17T08:18:07;8.60;61.70
34095;DHT22;20372;47.080;15.410;2023-03-17T08:20:33;8.10;61.00
34095;DHT22;20372;47.080;15.410;2023-03-17T08:22:59;7.90;61.20
34095;DHT22;20372;47.080;15.410;2023-03-17T08:25:25;7.00;62.10
34095;DHT22;20372;47.080;15.410;2023-03-17T08:27:51;7.50;64.10
34095;DHT22;20372;47.080;15.410;2023-03-17T08:30:18;8.20;63.80
34095;DHT22;20372;47.080;15.410;2023-03-17T08:32:45;8.30;63.30
34095;DHT22;20372;47.080;15.410;2023-03-17T08:35:11;8.50;63.50
34095;DHT22;20372;47.080;15.410;2023-03-17T08:37:41;8.90;61.30
34095;DHT22;20372;47.080;15.410;2023-03-17T08:40:07;9.80;59.00
34095;DHT22;20372;47.080;15.410;2023-03-17T08:42:34;10.70;59.10
34095;DHT22;20372;47.080;15.410;2023-03-17T08:45:02;12.50;57.10
34095;DHT22;20372;47.080;15.410;2023-03-17T08:47:28;12.50;54.40
34095;DHT22;20372;47.080;15.410;2023-03-17T08:49:54;11.70;53.70
34095;DHT22;20372;47.080;15.410;2023-03-17T08:52:20;13.10;54.70
34095;DHT22;20372;47.080;15.410;2023-03-17T08:54:46;14.00;53.10
34095;DHT22;20372;47.080;15.410;2023-03-17T08:57:13;13.80;52.40
34095;DHT22;20372;47.080;15.410;2023-03-17T08:59:38;14.90;52.40
34095;DHT22;20372;47.080;15.410;2023-03-17T09:02:04;14.40;51.60
34095;DHT22;20372;47.080;15.410;2023-03-17T09:04:30;14.10;51.30
34095;DHT22;20372;47.080;15.410;2023-03-17T09:06:56;14.20;52.30
34095;DHT22;20372;47.080;15.410;2023-03-17T09:09:23;13.20;51.50
34095;DHT22;20372;47.080;15.410;2023-03-17T09:11:48;13.00;51.40
34095;DHT22;20372;47.080;15.410;2023-03-17T09:14:14;13.80;49.80
34095;DHT22;20372;47.080;15.410;2023-03-17T09:16:40;12.80;52.40
34095;DHT22;20372;47.080;15.410;2023-03-17T09:19:06;12.80;52.60
34095;DHT22;20372;47.080;15.410;2023-03-17T09:21:32;14.60;51.20
34095;DHT22;20372;47.080;15.410;2023-03-17T09:23:58;13.40;50.40
34095;DHT22;20372;47.080;15.410;2023-03-17T09:26:24;13.90;51.20
34095;DHT22;20372;47.080;15.410;2023-03-17T09:28:50;14.00;49.10
34095;DHT22;20372;47.080;15.410;2023-03-17T09:31:16;13.40;49.90
34095;DHT22;20372;47.080;15.410;2023-03-17T09:33:42;13.10;52.60
34095;DHT22;20372;47.080;15.410;2023-03-17T09:36:08;11.60;50.20
34095;DHT22;20372;47.080;15.410;2023-03-17T09:38:34;10.40;52.00
34095;DHT22;20372;47.080;15.410;2023-03-17T09:43:47;12.00;53.60
34095;DHT22;20372;47.080;15.410;2023-03-17T09:48:57;12.00;54.40
34095;DHT22;20372;47.080;15.410;2023-03-17T09:51:24;11.50;51.70
34095;DHT22;20372;47.080;15.410;2023-03-17T09:56:48;11.10;53.10
34095;DHT22;20372;47.080;15.410;2023-03-17T10:01:43;10.40;52.70
34095;DHT22;20372;47.080;15.410;2023-03-17T10:04:09;10.50;53.20
34095;DHT22;20372;47.080;15.410;2023-03-17T10:06:40;10.90;55.40
34095;DHT22;20372;47.080;15.410;2023-03-17T10:09:17;11.50;53.70
34095;DHT22;20372;47.080;15.410;2023-03-17T10:11:48;12.20;54.40
34095;DHT22;20372;47.080;15.410;2023-03-17T10:14:21;12.10;52.20
34095;DHT22;20372;47.080;15.410;2023-03-17T10:21:57;12.30;53.90
34095;DHT22;20372;47.080;15.410;2023-03-17T10:24:25;12.30;52.10
34095;DHT22;20372;47.080;15.410;2023-03-17T10:26:51;11.80;52.50
34095;DHT22;20372;47.080;15.410;2023-03-17T10:29:22;11.60;53.40
34095;DHT22;20372;47.080;15.410;2023-03-17T10:31:48;11.50;54.20
34095;DHT22;20372;47.080;15.410;2023-03-17T10:34:16;11.80;53.80
34095;DHT22;20372;47.080;15.410;2023-03-17T10:36:43;11.80;52.10
34095;DHT22;20372;47.080;15.410;2023-03-17T10:39:15;11.00;52.10
34095;DHT22;20372;47.080;15.410;2023-03-17T10:41:45;10.80;53.00
34095;DHT22;20372;47.080;15.410;2023-03-17T10:44:20;11.60;54.50
34095;DHT22;20372;47.080;15.410;2023-03-17T10:46:55;11.50;52.20
34095;DHT22;20372;47.080;15.410;2023-03-17T10:49:21;12.10;54.20
34095;DHT22;20372;47.080;15.410;2023-03-17T10:51:49;11.90;54.60
34095;DHT22;20372;47.080;15.410;2023-03-17T10:54:17;12.40;53.30
34095;DHT22;20372;47.080;15.410;2023-03-17T10:56:45;11.70;51.30
34095;DHT22;20372;47.080;15.410;2023-03-17T11:01:46;11.40;52.60
34095;DHT22;20372;47.080;15.410;2023-03-17T11:06:59;10.60;55.80
34095;DHT22;20372;47.080;15.410;2023-03-17T11:09:32;11.90;54.40
34095;DHT22;20372;47.080;15.410;2023-03-17T11:12:45;11.40;52.40
34095;DHT22;20372;47.080;15.410;2023-03-17T11:14:44;11.70;53.40
34095;DHT22;20372;47.080;15.410;2023-03-17T11:17:15;11.90;53.50
34095;DHT22;20372;47.080;15.410;2023-03-17T11:19:53;11.60;50.70
34095;DHT22;20372;47.080;15.410;2023-03-17T11:22:30;11.50;52.90
34095;DHT22;20372;47.080;15.410;2023-03-17T11:25:09;12.10;54.10
34095;DHT22;20372;47.080;15.410;2023-03-17T11:27:48;11.00;52.20
34095;DHT22;20372;47.080;15.410;2023-03-17T11:35:49;11.70;54.40
34095;DHT22;20372;47.080;15.410;2023-03-17T11:38:23;11.20;52.40
34095;DHT22;20372;47.080;15.410;2023-03-17T11:48:23;11.70;53.30
34095;DHT22;20372;47.080;15.410;2023-03-17T11:50:54;12.00;52.20
34095;DHT22;20372;47.080;15.410;2023-03-17T11:55:59;11.20;51.10
34095;DHT22;20372;47.080;15.410;2023-03-17T11:58:33;11.00;52.20
34095;DHT22;20372;47.080;15.410;2023-03-17T12:01:00;11.70;52.10
34095;DHT22;20372;47.080;15.410;2023-03-17T12:06:13;12.10;51.70
34095;DHT22;20372;47.080;15.410;2023-03-17T12:08:54;11.90;51.60
34095;DHT22;20372;47.080;15.410;2023-03-17T12:11:23;12.60;52.40
34095;DHT22;20372;47.080;15.410;2023-03-17T12:13:59;12.00;51.90
34095;DHT22;20372;47.080;15.410;2023-03-17T12:16:29;12.50;52.20
34095;DHT22;20372;47.080;15.410;2023-03-17T12:21:36;11.50;50.20
34095;DHT22;20372;47.080;15.410;2023-03-17T12:24:07;12.10;52.10
34095;DHT22;20372;47.080;15.410;2023-03-17T12:26:36;12.60;50.60
34095;DHT22;20372;47.080;15.410;2023-03-17T12:31:52;12.00;51.40
34095;DHT22;20372;47.080;15.410;2023-03-17T12:34:21;13.00;50.80
34095;DHT22;20372;47.080;15.410;2023-03-17T12:36:50;12.80;47.90
34095;DHT22;20372;47.080;15.410;2023-03-17T12:39:23;13.20;51.60
34095;DHT22;20372;47.080;15.410;2023-03-17T12:49:55;12.40;51.00
34095;DHT22;20372;47.080;15.410;2023-03-17T12:55:11;12.50;51.50
34095;DHT22;20372;47.080;15.410;2023-03-17T12:57:40;12.90;49.30
34095;DHT22;20372;47.080;15.410;2023-03-17T13:02:48;12.90;52.10
34095;DHT22;20372;47.080;15.410;2023-03-17T13:05:15;13.30;50.40
34095;DHT22;20372;47.080;15.410;2023-03-17T13:17:50;13.60;52.10
34095;DHT22;20372;47.080;15.410;2023-03-17T13:20:16;13.40;50.20
34095;DHT22;20372;47.080;15.410;2023-03-17T13:25:34;13.30;50.10
34095;DHT22;20372;47.080;15.410;2023-03-17T13:49:03;13.40;50.00
34095;DHT22;20372;47.080;15.410;2023-03-17T13:51:39;13.60;50.80
34095;DHT22;20372;47.080;15.410;2023-03-17T13:54:07;13.70;50.30
34095;DHT22;20372;47.080;15.410;2023-03-17T14:01:27;14.10;50.30
34095;DHT22;20372;47.080;15.410;2023-03-17T14:03:54;14.10;49.40
34095;DHT22;20372;47.080;15.410;2023-03-17T14:06:25;13.90;49.60
34095;DHT22;20372;47.080;15.410;2023-03-17T14:08:56;13.80;51.70
34095;DHT22;20372;47.080;15.410;2023-03-17T14:13:54;13.70;49.60
34095;DHT22;20372;47.080;15.410;2023-03-17T14:16:28;13.30;50.60
34095;DHT22;20372;47.080;15.410;2023-03-17T14:18:59;13.30;48.70
34095;DHT22;20372;47.080;15.410;2023-03-17T14:21:29;13.20;48.80
34095;DHT22;20372;47.080;15.410;2023-03-17T14:23:56;13.30;51.60
34095;DHT22;20372;47.080;15.410;2023-03-17T14:26:23;13.50;51.10
34095;DHT22;20372;47.080;15.410;2023-03-17T14:28:49;13.60;51.00
34095;DHT22;20372;47.080;15.410;2023-03-17T14:31:20;13.70;51.00
34095;DHT22;20372;47.080;15.410;2023-03-17T14:33:47;13.70;49.70
34095;DHT22;20372;47.080;15.410;2023-03-17T14:36:12;13.70;49.60
34095;DHT22;20372;47.080;15.410;2023-03-17T14:38:44;13.90;50.20
34095;DHT22;20372;47.080;15.410;2023-03-17T14:43:39;13.20;50.30
34095;DHT22;20372;47.080;15.410;2023-03-17T14:46:06;13.20;49.40
34095;DHT22;20372;47.080;15.410;2023-03-17T14:48:33;13.20;49.20
34095;DHT22;20372;47.080;15.410;2023-03-17T14:51:05;13.20;50.60
34095;DHT22;20372;47.080;15.410;2023-03-17T14:53:35;13.30;50.20
34095;DHT22;20372;47.080;15.410;2023-03-17T14:56:03;13.30;50.20
34095;DHT22;20372;47.080;15.410;2023-03-17T14:58:30;13.40;50.90
34095;DHT22;20372;47.080;15.410;2023-03-17T15:01:01;13.30;49.90
34095;DHT22;20372;47.080;15.410;2023-03-17T15:03:27;13.40;50.60
34095;DHT22;20372;47.080;15.410;2023-03-17T15:06:02;13.40;50.10
34095;DHT22;20372;47.080;15.410;2023-03-17T15:11:01;12.80;50.50
34095;DHT22;20372;47.080;15.410;2023-03-17T15:13:28;12.90;50.70
34095;DHT22;20372;47.080;15.410;2023-03-17T15:15:56;13.10;51.40
34095;DHT22;20372;47.080;15.410;2023-03-17T15:18:23;13.00;50.60
34095;DHT22;20372;47.080;15.410;2023-03-17T15:20:49;13.00;51.10
34095;DHT22;20372;47.080;15.410;2023-03-17T15:23:16;12.90;50.70
34095;DHT22;20372;47.080;15.410;2023-03-17T15:25:43;12.80;50.60
34095;DHT22;20372;47.080;15.410;2023-03-17T15:30:35;12.80;51.10
34095;DHT22;20372;47.080;15.410;2023-03-17T15:33:11;12.80;50.70
34095;DHT22;20372;47.080;15.410;2023-03-17T15:35:40;12.80;51.20
34095;DHT22;20372;47.080;15.410;2023-03-17T15:38:08;12.70;50.60
34095;DHT22;20372;47.080;15.410;2023-03-17T15:40:34;12.50;50.70
34095;DHT22;20372;47.080;15.410;2023-03-17T15:42:59;12.50;50.90
34095;DHT22;20372;47.080;15.410;2023-03-17T15:45:25;12.40;52.40
34095;DHT22;20372;47.080;15.410;2023-03-17T15:47:50;12.30;52.30
34095;DHT22;20372;47.080;15.410;2023-03-17T15:52:42;12.20;53.00
34095;DHT22;20372;47.080;15.410;2023-03-17T15:55:15;12.20;52.90
34095;DHT22;20372;47.080;15.410;2023-03-17T15:57:42;12.10;52.80
34095;DHT22;20372;47.080;15.410;2023-03-17T16:00:10;12.00;52.60
34095;DHT22;20372;47.080;15.410;2023-03-17T16:02:38;12.00;52.70
34095;DHT22;20372;47.080;15.410;2023-03-17T16:05:14;12.00;52.10
34095;DHT22;20372;47.080;15.410;2023-03-17T16:07:40;11.90;53.00
34095;DHT22;20372;47.080;15.410;2023-03-17T16:10:19;11.80;53.00
34095;DHT22;20372;47.080;15.410;2023-03-17T16:12:45;11.80;52.80
34095;DHT22;20372;47.080;15.410;2023-03-17T16:15:14;11.70;53.20
34095;DHT22;20372;47.080;15.410;2023-03-17T16:17:40;11.70;52.70
34095;DHT22;20372;47.080;15.410;2023-03-17T16:20:23;11.60;53.70
34095;DHT22;20372;47.080;15.410;2023-03-17T16:22:54;11.50;52.70
34095;DHT22;20372;47.080;15.410;2023-03-17T16:25:30;11.50;52.70
34095;DHT22;20372;47.080;15.410;2023-03-17T16:28:00;11.40;53.50
34095;DHT22;20372;47.080;15.410;2023-03-17T16:30:27;11.20;54.10
34095;DHT22;20372;47.080;15.410;2023-03-17T16:32:53;11.20;53.80
34095;DHT22;20372;47.080;15.410;2023-03-17T16:35:21;11.10;53.80
34095;DHT22;20372;47.080;15.410;2023-03-17T16:37:47;11.00;54.10
34095;DHT22;20372;47.080;15.410;2023-03-17T16:40:23;10.80;54.70
34095;DHT22;20372;47.080;15.410;2023-03-17T16:42:49;10.80;54.40
34095;DHT22;20372;47.080;15.410;2023-03-17T16:45:25;10.80;54.50
34095;DHT22;20372;47.080;15.410;2023-03-17T16:47:52;10.60;55.30
34095;DHT22;20372;47.080;15.410;2023-03-17T16:50:18;10.60;55.10
34095;DHT22;20372;47.080;15.410;2023-03-17T16:52:45;10.40;55.60
34095;DHT22;20372;47.080;15.410;2023-03-17T16:55:11;10.30;55.10
34095;DHT22;20372;47.080;15.410;2023-03-17T16:57:37;10.20;55.10
34095;DHT22;20372;47.080;15.410;2023-03-17T17:00:04;10.20;56.50
34095;DHT22;20372;47.080;15.410;2023-03-17T17:02:30;10.00;56.30
34095;DHT22;20372;47.080;15.410;2023-03-17T17:04:55;9.80;56.00
34095;DHT22;20372;47.080;15.410;2023-03-17T17:07:21;9.70;57.20
34095;DHT22;20372;47.080;15.410;2023-03-17T17:09:46;9.80;56.20
34095;DHT22;20372;47.080;15.410;2023-03-17T17:12:12;9.70;55.90
34095;DHT22;20372;47.080;15.410;2023-03-17T17:14:38;9.90;55.30
34095;DHT22;20372;47.080;15.410;2023-03-17T17:17:03;9.90;55.40
34095;DHT22;20372;47.080;15.410;2023-03-17T17:19:29;10.00;54.90